createdAt,value
2018-10-19T00:03:30.054Z,0.00
2018-10-19T00:10:30.480Z,0.00
2018-10-19T00:19:30.109Z,0.00
2018-10-19T00:22:29.732Z,0.00
2018-10-19T00:23:29.404Z,0.00
2018-10-19T00:28:31.723Z,0.00
2018-10-19T00:30:29.500Z,0.00
2018-10-19T00:33:29.935Z,0.00
2018-10-19T00:37:30.136Z,0.00
2018-10-19T00:40:30.876Z,0.00
2018-10-19T00:41:28.715Z,0.00
2018-10-19T00:51:28.602Z,0.00
2018-10-19T00:53:29.696Z,0.00
2018-10-19T01:07:29.266Z,0.00
2018-10-19T01:14:30.078Z,0.00
2018-10-19T01:16:29.317Z,0.00
2018-10-19T01:17:28.817Z,0.00
2018-10-19T01:20:29.939Z,0.00
2018-10-19T11:36:25.146Z,0.00
2018-10-19T11:37:24.711Z,0.00
2018-10-19T11:38:24.614Z,0.00
2018-10-19T11:39:24.584Z,0.00
2018-10-19T11:40:24.565Z,5.63
2018-10-19T11:41:24.656Z,5.63
2018-10-19T11:42:24.494Z,5.63
2018-10-19T11:43:24.471Z,5.63
2018-10-19T11:44:24.490Z,5.63
2018-10-19T11:45:24.417Z,5.63
2018-10-19T11:46:24.474Z,5.63
2018-10-19T11:47:24.529Z,5.63
2018-10-19T11:48:24.360Z,5.63
2018-10-19T11:49:24.403Z,5.63
2018-10-19T11:50:24.372Z,11.25
2018-10-19T11:51:24.247Z,11.25
2018-10-19T11:52:24.360Z,11.25
2018-10-19T11:53:24.236Z,11.25
2018-10-19T11:54:24.162Z,11.25
2018-10-19T11:55:24.123Z,11.25
2018-10-19T11:56:24.135Z,11.25
2018-10-19T11:57:24.191Z,11.25
2018-10-19T11:58:24.098Z,16.88
2018-10-19T11:59:24.037Z,16.88
2018-10-19T12:00:24.011Z,16.88
2018-10-19T12:01:24.005Z,16.88
2018-10-19T12:02:24.167Z,16.88
2018-10-19T12:03:23.961Z,16.88
2018-10-19T12:04:23.885Z,22.50
2018-10-19T12:05:23.902Z,22.50
2018-10-19T12:06:23.839Z,22.50
2018-10-19T12:07:23.917Z,16.88
2018-10-19T12:08:23.876Z,11.25
2018-10-19T12:09:23.773Z,11.25
2018-10-19T12:10:24.860Z,11.25
2018-10-19T12:11:25.525Z,11.25
2018-10-19T12:12:24.654Z,11.25
2018-10-19T12:13:23.638Z,11.25
2018-10-19T12:14:23.604Z,11.25
2018-10-19T12:15:23.606Z,11.25
2018-10-19T12:16:23.683Z,11.25
2018-10-19T12:17:23.590Z,28.13
2018-10-19T12:18:23.609Z,33.75
2018-10-19T12:19:23.529Z,33.75
2018-10-19T12:20:23.463Z,33.75
2018-10-19T12:21:23.463Z,39.38
2018-10-19T12:22:23.419Z,39.38
2018-10-19T12:23:23.404Z,39.38
2018-10-19T12:24:23.457Z,45.00
2018-10-19T12:25:23.452Z,45.00
2018-10-19T12:26:23.687Z,45.00
2018-10-19T12:27:23.268Z,61.88
2018-10-19T12:28:23.232Z,118.13
2018-10-19T12:29:23.312Z,140.63
2018-10-19T12:32:23.148Z,67.50
2018-10-19T12:33:23.098Z,56.25
2018-10-19T12:34:23.177Z,56.25
2018-10-19T12:35:23.074Z,56.25
2018-10-19T12:36:23.022Z,56.25
2018-10-19T12:37:22.999Z,56.25
2018-10-19T12:38:22.980Z,56.25
2018-10-19T12:39:23.625Z,56.25
2018-10-19T12:40:27.342Z,56.25
2018-10-19T12:41:24.156Z,56.25
2018-10-19T12:42:22.865Z,56.25
2018-10-19T12:43:23.744Z,56.25
2018-10-19T12:45:24.202Z,56.25
2018-10-19T12:48:23.361Z,61.88
2018-10-19T12:51:22.677Z,61.88
2018-10-19T12:52:22.604Z,61.88
2018-10-19T12:53:22.567Z,67.50
2018-10-19T12:54:22.661Z,67.50
2018-10-19T12:55:22.645Z,67.50
2018-10-19T12:56:22.527Z,67.50
2018-10-19T12:57:22.486Z,67.50
2018-10-19T12:58:22.435Z,67.50
2018-10-19T12:59:22.409Z,67.50
2018-10-19T13:00:22.395Z,73.13
2018-10-19T13:01:22.448Z,73.13
2018-10-19T13:02:22.337Z,73.13
2018-10-19T13:03:22.508Z,73.13
2018-10-19T13:04:22.303Z,73.13
2018-10-19T13:05:22.304Z,73.13
2018-10-19T13:06:22.222Z,73.13
2018-10-19T13:07:22.301Z,78.75
2018-10-19T13:08:22.182Z,78.75
2018-10-19T13:09:22.219Z,78.75
2018-10-19T13:10:22.243Z,78.75
2018-10-19T13:11:22.170Z,78.75
2018-10-19T13:12:22.240Z,78.75
2018-10-19T13:13:22.024Z,78.75
2018-10-19T13:14:22.041Z,78.75
2018-10-19T13:15:22.010Z,78.75
2018-10-19T13:16:22.109Z,78.75
2018-10-19T13:17:22.052Z,78.75
2018-10-19T13:18:21.930Z,78.75
2018-10-19T13:19:21.908Z,78.75
2018-10-19T13:20:21.865Z,78.75
2018-10-19T13:21:21.852Z,78.75
2018-10-19T13:22:21.915Z,78.75
2018-10-19T13:23:21.919Z,78.75
2018-10-19T13:24:21.792Z,84.38
2018-10-19T13:25:21.733Z,84.38
2018-10-19T13:26:21.724Z,78.75
2018-10-19T13:27:21.724Z,78.75
2018-10-19T13:28:21.767Z,78.75
2018-10-19T13:29:21.643Z,78.75
2018-10-19T13:30:21.684Z,78.75
2018-10-19T13:31:21.684Z,78.75
2018-10-19T13:32:21.569Z,78.75
2018-10-19T13:33:21.711Z,78.75
2018-10-19T13:34:21.647Z,78.75
2018-10-19T13:35:21.662Z,84.38
2018-10-19T13:36:21.584Z,78.75
2018-10-19T13:37:21.621Z,84.38
2018-10-19T13:38:21.479Z,84.38
2018-10-19T13:39:21.519Z,84.38
2018-10-19T13:40:21.389Z,84.38
2018-10-19T13:41:21.387Z,84.38
2018-10-19T13:42:21.333Z,84.38
2018-10-19T13:43:21.337Z,84.38
2018-10-19T13:44:21.303Z,84.38
2018-10-19T13:45:21.332Z,90.00
2018-10-19T13:46:21.710Z,84.38
2018-10-19T13:47:21.195Z,84.38
2018-10-19T13:48:21.185Z,84.38
2018-10-19T13:49:21.167Z,84.38
2018-10-19T13:50:21.336Z,84.38
2018-10-19T13:51:21.190Z,90.00
2018-10-19T13:52:21.312Z,84.38
2018-10-19T13:53:21.081Z,90.00
2018-10-19T13:54:21.040Z,90.00
2018-10-19T13:55:21.091Z,90.00
2018-10-19T13:56:20.966Z,90.00
2018-10-19T13:57:20.981Z,90.00
2018-10-19T13:58:21.092Z,95.63
2018-10-19T13:59:20.912Z,95.63
2018-10-19T14:00:21.014Z,95.63
2018-10-19T14:01:20.842Z,95.63
2018-10-19T14:02:20.869Z,95.63
2018-10-19T14:03:20.806Z,95.63
2018-10-19T14:04:20.836Z,95.63
2018-10-19T14:05:20.833Z,95.63
2018-10-19T14:06:20.840Z,95.63
2018-10-19T14:07:20.724Z,95.63
2018-10-19T14:08:20.683Z,95.63
2018-10-19T14:09:20.701Z,101.25
2018-10-19T14:10:20.715Z,101.25
2018-10-19T14:11:20.735Z,101.25
2018-10-19T14:12:20.588Z,101.25
2018-10-19T14:13:20.598Z,101.25
2018-10-19T14:14:20.558Z,101.25
2018-10-19T14:15:20.527Z,101.25
2018-10-19T14:16:20.603Z,101.25
2018-10-19T14:17:20.507Z,106.88
2018-10-19T14:18:20.441Z,106.88
2018-10-19T14:20:20.400Z,112.50
2018-10-19T14:21:20.383Z,106.88
2018-10-19T14:22:20.501Z,95.63
2018-10-19T14:23:20.359Z,95.63
2018-10-19T14:24:20.331Z,101.25
2018-10-19T14:25:20.293Z,101.25
2018-10-19T14:26:20.286Z,90.00
2018-10-19T14:27:20.343Z,84.38
2018-10-19T14:28:20.254Z,95.63
2018-10-19T14:29:20.193Z,95.63
2018-10-19T14:30:20.189Z,84.38
2018-10-19T14:31:20.160Z,84.38
2018-10-19T14:32:20.347Z,106.88
2018-10-19T14:33:20.259Z,95.63
2018-10-19T14:34:20.090Z,90.00
2018-10-19T14:35:20.071Z,84.38
2018-10-19T14:36:20.067Z,78.75
2018-10-19T14:37:20.279Z,67.50
2018-10-19T14:38:19.998Z,67.50
2018-10-19T14:39:19.963Z,67.50
2018-10-19T14:40:19.952Z,67.50
2018-10-19T14:41:19.933Z,84.38
2018-10-19T14:42:19.920Z,78.75
2018-10-19T14:43:20.017Z,78.75
2018-10-19T14:44:19.856Z,67.50
2018-10-19T14:45:19.853Z,73.13
2018-10-19T14:46:19.813Z,73.13
2018-10-19T14:47:19.794Z,73.13
2018-10-19T14:48:19.765Z,73.13
2018-10-19T14:49:19.945Z,67.50
2018-10-19T14:50:19.707Z,67.50
2018-10-19T14:51:19.705Z,61.88
2018-10-19T14:52:19.675Z,61.88
2018-10-19T14:53:19.650Z,67.50
2018-10-19T14:54:19.842Z,73.13
2018-10-19T14:55:19.628Z,67.50
2018-10-19T14:56:19.576Z,61.88
2018-10-19T14:57:19.558Z,61.88
2018-10-19T14:58:19.553Z,61.88
2018-10-19T14:59:19.713Z,67.50
2018-10-19T15:00:19.520Z,67.50
2018-10-19T15:01:19.459Z,106.88
2018-10-19T15:02:19.437Z,84.38
2018-10-19T15:03:19.418Z,67.50
2018-10-19T15:04:19.395Z,78.75
2018-10-19T15:05:19.476Z,61.88
2018-10-19T15:06:19.368Z,56.25
2018-10-19T15:07:19.313Z,56.25
2018-10-19T15:08:19.302Z,56.25
2018-10-19T15:09:19.431Z,78.75
2018-10-19T15:10:19.760Z,112.50
2018-10-19T15:11:19.615Z,118.13
2018-10-19T15:12:19.195Z,118.13
2018-10-19T15:13:19.177Z,112.50
2018-10-19T15:14:19.172Z,112.50
2018-10-19T15:15:19.247Z,112.50
2018-10-19T15:16:19.137Z,112.50
2018-10-19T15:17:19.081Z,101.25
2018-10-19T15:18:19.101Z,112.50
2018-10-19T15:19:19.036Z,112.50
2018-10-19T15:20:19.006Z,118.13
2018-10-19T15:21:19.136Z,106.88
2018-10-19T15:22:18.972Z,101.25
2018-10-19T15:23:18.969Z,118.13
2018-10-19T15:24:18.952Z,118.13
2018-10-19T15:25:18.914Z,118.13
2018-10-19T15:26:18.873Z,118.13
2018-10-19T15:27:18.965Z,123.75
2018-10-19T15:28:18.845Z,123.75
2018-10-19T15:29:18.884Z,129.38
2018-10-19T15:30:18.882Z,84.38
2018-10-19T15:31:18.774Z,123.75
2018-10-19T15:32:18.992Z,123.75
2018-10-19T15:33:18.750Z,129.38
2018-10-19T15:34:18.723Z,123.75
2018-10-19T15:35:18.699Z,123.75
2018-10-19T15:36:18.732Z,123.75
2018-10-19T15:37:18.823Z,118.13
2018-10-19T15:38:18.607Z,118.13
2018-10-19T15:39:18.604Z,118.13
2018-10-19T15:40:18.553Z,123.75
2018-10-19T15:41:18.587Z,123.75
2018-10-19T15:42:18.735Z,123.75
2018-10-19T15:43:18.517Z,123.75
2018-10-19T15:44:18.468Z,123.75
2018-10-19T15:45:18.506Z,67.50
2018-10-19T15:46:18.438Z,118.13
2018-10-19T15:47:18.404Z,123.75
2018-10-19T15:48:18.703Z,123.75
2018-10-19T15:49:18.378Z,118.13
2018-10-19T15:50:18.341Z,118.13
2018-10-19T15:51:18.310Z,118.13
2018-10-19T15:52:18.301Z,118.13
2018-10-19T15:53:18.287Z,123.75
2018-10-19T15:54:18.420Z,123.75
2018-10-19T15:55:18.221Z,101.25
2018-10-19T15:56:18.263Z,56.25
2018-10-19T15:57:18.309Z,90.00
2018-10-19T15:58:18.202Z,123.75
2018-10-19T15:59:18.447Z,129.38
2018-10-19T16:00:18.287Z,90.00
2018-10-19T16:01:18.120Z,90.00
2018-10-19T16:02:18.098Z,73.13
2018-10-19T16:03:18.127Z,123.75
2018-10-19T16:04:18.193Z,90.00
2018-10-19T16:05:18.111Z,67.50
2018-10-19T16:06:18.101Z,123.75
2018-10-19T16:07:18.020Z,123.75
2018-10-19T16:08:17.946Z,123.75
2018-10-19T16:09:17.959Z,123.75
2018-10-19T16:10:18.184Z,118.13
2018-10-19T16:11:17.936Z,123.75
2018-10-19T16:12:17.862Z,56.25
2018-10-19T16:13:17.832Z,50.63
2018-10-19T16:14:17.816Z,129.38
2018-10-19T16:15:17.983Z,123.75
2018-10-19T16:16:17.917Z,123.75
2018-10-19T16:17:17.731Z,123.75
2018-10-19T16:18:17.802Z,129.38
2018-10-19T16:19:17.752Z,123.75
2018-10-19T16:20:17.914Z,129.38
2018-10-19T16:21:17.709Z,129.38
2018-10-19T16:22:17.654Z,129.38
2018-10-19T16:23:17.628Z,135.00
2018-10-19T16:24:17.660Z,135.00
2018-10-19T16:25:17.710Z,135.00
2018-10-19T16:26:17.592Z,135.00
2018-10-19T16:27:17.705Z,140.63
2018-10-19T16:28:17.502Z,140.63
2018-10-19T16:29:17.531Z,146.25
2018-10-19T16:30:17.467Z,146.25
2018-10-19T16:31:17.607Z,146.25
2018-10-19T16:32:17.486Z,146.25
2018-10-19T16:33:17.444Z,146.25
2018-10-19T16:34:17.424Z,157.50
2018-10-19T16:35:17.421Z,157.50
2018-10-19T16:36:17.426Z,157.50
2018-10-19T16:37:17.430Z,157.50
2018-10-19T16:38:17.334Z,168.75
2018-10-19T16:39:17.275Z,168.75
2018-10-19T16:40:17.205Z,151.88
2018-10-19T16:41:17.208Z,163.13
2018-10-19T16:42:17.257Z,157.50
2018-10-19T16:43:17.309Z,163.13
2018-10-19T16:44:17.174Z,180.00
2018-10-19T16:45:17.255Z,180.00
2018-10-19T16:46:17.160Z,185.63
2018-10-19T16:47:17.091Z,174.38
2018-10-19T16:48:17.056Z,163.13
2018-10-19T16:49:17.169Z,157.50
2018-10-19T16:50:17.017Z,168.75
2018-10-19T16:51:16.986Z,140.63
2018-10-19T16:52:17.144Z,157.50
2018-10-19T16:53:17.096Z,140.63
2018-10-19T16:54:17.221Z,135.00
2018-10-19T16:55:16.889Z,129.38
2018-10-19T16:56:16.875Z,129.38
2018-10-19T16:57:16.898Z,129.38
2018-10-19T16:58:16.911Z,123.75
2018-10-19T16:59:16.960Z,129.38
2018-10-19T17:00:16.794Z,123.75
2018-10-19T17:01:16.753Z,129.38
2018-10-19T17:02:16.755Z,129.38
2018-10-19T17:03:16.848Z,129.38
2018-10-19T17:04:16.966Z,129.38
2018-10-19T17:05:16.756Z,129.38
2018-10-19T17:06:16.828Z,140.63
2018-10-19T17:07:16.648Z,157.50
2018-10-19T17:08:16.620Z,151.88
2018-10-19T17:09:16.920Z,135.00
2018-10-19T17:10:16.569Z,135.00
2018-10-19T17:11:16.842Z,146.25
2018-10-19T17:12:16.601Z,151.88
2018-10-19T17:13:16.495Z,146.25
2018-10-19T17:14:16.583Z,146.25
2018-10-19T17:15:16.472Z,135.00
2018-10-19T17:16:16.432Z,151.88
2018-10-19T17:17:16.673Z,129.38
2018-10-19T17:18:16.483Z,129.38
2018-10-19T17:19:16.532Z,129.38
2018-10-19T17:20:16.679Z,129.38
2018-10-19T17:21:16.426Z,135.00
2018-10-19T17:22:16.348Z,129.38
2018-10-19T17:23:16.284Z,135.00
2018-10-19T17:24:16.348Z,135.00
2018-10-19T17:25:16.259Z,129.38
2018-10-19T17:26:16.427Z,129.38
2018-10-19T17:27:16.253Z,129.38
2018-10-19T17:28:16.213Z,129.38
2018-10-19T17:29:16.249Z,140.63
2018-10-19T17:30:16.179Z,135.00
2018-10-19T17:31:16.257Z,135.00
2018-10-19T17:32:16.182Z,168.75
2018-10-19T17:33:16.178Z,163.13
2018-10-19T17:34:16.040Z,146.25
2018-10-19T17:35:16.069Z,151.88
2018-10-19T17:36:16.179Z,146.25
2018-10-19T17:37:16.245Z,146.25
2018-10-19T17:38:16.043Z,140.63
2018-10-19T17:39:16.004Z,151.88
2018-10-19T17:40:15.930Z,157.50
2018-10-19T17:41:15.977Z,146.25
2018-10-19T17:42:16.125Z,140.63
2018-10-19T17:43:15.945Z,135.00
2018-10-19T17:44:15.855Z,129.38
2018-10-19T17:45:15.914Z,123.75
2018-10-19T17:46:15.871Z,129.38
2018-10-19T17:47:16.081Z,129.38
2018-10-19T17:48:15.854Z,129.38
2018-10-19T17:49:15.797Z,129.38
2018-10-19T17:50:15.762Z,140.63
2018-10-19T17:51:15.884Z,140.63
2018-10-19T17:52:15.822Z,135.00
2018-10-19T17:53:15.724Z,129.38
2018-10-19T17:54:15.785Z,146.25
2018-10-19T17:55:15.628Z,146.25
2018-10-19T17:56:15.595Z,146.25
2018-10-19T17:57:15.798Z,146.25
2018-10-19T17:58:15.551Z,135.00
2018-10-19T17:59:15.607Z,135.00
2018-10-19T18:00:15.634Z,123.75
2018-10-19T18:01:15.472Z,123.75
2018-10-19T18:02:15.435Z,129.38
2018-10-19T18:03:15.676Z,123.75
2018-10-19T18:04:15.405Z,123.75
2018-10-19T18:05:15.491Z,123.75
2018-10-19T18:06:15.450Z,118.13
2018-10-19T18:07:15.344Z,118.13
2018-10-19T18:08:15.341Z,118.13
2018-10-19T18:09:15.582Z,112.50
2018-10-19T18:10:15.291Z,106.88
2018-10-19T18:11:15.604Z,101.25
2018-10-19T18:12:15.298Z,101.25
2018-10-19T18:13:15.200Z,95.63
2018-10-19T18:14:15.385Z,101.25
2018-10-19T18:15:15.223Z,101.25
2018-10-19T18:16:15.288Z,101.25
2018-10-19T18:17:15.235Z,101.25
2018-10-19T18:18:15.108Z,106.88
2018-10-19T18:19:15.233Z,112.50
2018-10-19T18:20:15.076Z,106.88
2018-10-19T18:21:15.162Z,106.88
2018-10-19T18:22:15.224Z,106.88
2018-10-19T18:23:15.379Z,101.25
2018-10-19T18:24:15.139Z,95.63
2018-10-19T18:25:14.931Z,95.63
2018-10-19T18:26:15.066Z,90.00
2018-10-19T18:27:15.071Z,84.38
2018-10-19T18:28:14.929Z,78.75
2018-10-19T18:29:15.193Z,78.75
2018-10-19T18:30:14.895Z,78.75
2018-10-19T18:31:14.805Z,78.75
2018-10-19T18:32:15.014Z,73.13
2018-10-19T18:33:14.800Z,73.13
2018-10-19T18:34:14.962Z,73.13
2018-10-19T18:35:14.800Z,67.50
2018-10-19T18:36:14.732Z,67.50
2018-10-19T18:37:14.758Z,67.50
2018-10-19T18:38:14.769Z,67.50
2018-10-19T18:39:14.808Z,67.50
2018-10-19T18:40:14.619Z,67.50
2018-10-19T18:41:14.823Z,67.50
2018-10-19T18:42:14.572Z,67.50
2018-10-19T18:43:14.558Z,73.13
2018-10-19T18:44:14.811Z,73.13
2018-10-19T18:45:14.512Z,73.13
2018-10-19T18:46:14.514Z,73.13
2018-10-19T18:47:14.602Z,73.13
2018-10-19T18:48:14.416Z,73.13
2018-10-19T18:49:14.441Z,67.50
2018-10-19T18:50:15.290Z,67.50
2018-10-19T18:51:14.385Z,61.88
2018-10-19T18:52:14.340Z,61.88
2018-10-19T18:53:14.434Z,67.50
2018-10-19T18:54:14.316Z,67.50
2018-10-19T18:55:14.329Z,73.13
2018-10-19T18:56:14.438Z,73.13
2018-10-19T18:57:14.237Z,73.13
2018-10-19T18:58:14.216Z,73.13
2018-10-19T18:59:14.320Z,78.75
2018-10-19T19:00:14.194Z,84.38
2018-10-19T19:01:14.241Z,90.00
2018-10-19T19:02:14.177Z,95.63
2018-10-19T19:03:14.099Z,106.88
2018-10-19T19:04:14.089Z,118.13
2018-10-19T19:05:14.124Z,135.00
2018-10-19T19:06:14.151Z,112.50
2018-10-19T19:07:14.007Z,123.75
2018-10-19T19:08:14.022Z,118.13
2018-10-19T19:09:13.975Z,95.63
2018-10-19T19:10:13.966Z,95.63
2018-10-19T19:11:14.117Z,95.63
2018-10-19T19:12:13.894Z,95.63
2018-10-19T19:13:13.872Z,101.25
2018-10-19T19:14:13.895Z,118.13
2018-10-19T19:15:13.825Z,123.75
2018-10-19T19:16:13.965Z,123.75
2018-10-19T19:17:13.828Z,106.88
2018-10-19T19:18:13.766Z,129.38
2018-10-19T19:19:13.759Z,129.38
2018-10-19T19:20:13.791Z,129.38
2018-10-19T19:21:13.980Z,123.75
2018-10-19T19:22:13.668Z,112.50
2018-10-19T19:23:13.649Z,112.50
2018-10-19T19:24:13.634Z,146.25
2018-10-19T19:25:13.632Z,146.25
2018-10-19T19:26:13.787Z,151.88
2018-10-19T19:27:13.879Z,168.75
2018-10-19T19:28:13.606Z,168.75
2018-10-19T19:29:13.621Z,157.50
2018-10-19T19:30:13.549Z,90.00
2018-10-19T19:31:13.482Z,123.75
2018-10-19T19:32:13.501Z,140.63
2018-10-19T19:33:13.626Z,129.38
2018-10-19T19:34:13.409Z,163.13
2018-10-19T19:35:13.454Z,180.00
2018-10-19T19:36:13.350Z,118.13
2018-10-19T19:37:13.320Z,118.13
2018-10-19T19:38:13.427Z,146.25
2018-10-19T19:39:13.448Z,118.13
2018-10-19T19:40:13.294Z,84.38
2018-10-19T19:41:13.335Z,90.00
2018-10-19T19:42:13.228Z,118.13
2018-10-19T19:43:13.208Z,157.50
2018-10-19T19:44:13.267Z,84.38
2018-10-19T19:45:13.264Z,78.75
2018-10-19T19:46:13.157Z,78.75
2018-10-19T19:47:13.176Z,78.75
2018-10-19T19:48:13.109Z,78.75
2018-10-19T19:49:13.160Z,95.63
2018-10-19T19:50:13.264Z,84.38
2018-10-19T19:51:13.020Z,84.38
2018-10-19T19:52:13.001Z,101.25
2018-10-19T19:53:13.096Z,174.38
2018-10-19T19:54:12.971Z,146.25
2018-10-19T19:55:13.036Z,90.00
2018-10-19T19:56:12.985Z,101.25
2018-10-19T19:57:12.889Z,84.38
2018-10-19T19:58:12.997Z,146.25
2018-10-19T19:59:13.086Z,163.13
2018-10-19T20:00:12.989Z,168.75
2018-10-19T20:01:12.801Z,180.00
2018-10-19T20:02:12.865Z,168.75
2018-10-19T20:03:12.783Z,157.50
2018-10-19T20:04:12.787Z,151.88
2018-10-19T20:05:12.943Z,157.50
2018-10-19T20:06:12.703Z,151.88
2018-10-19T20:07:12.744Z,157.50
2018-10-19T20:08:12.727Z,151.88
2018-10-19T20:09:12.618Z,146.25
2018-10-19T20:10:12.606Z,146.25
2018-10-19T20:11:12.717Z,146.25
2018-10-19T20:12:12.699Z,146.25
2018-10-19T20:13:12.540Z,123.75
2018-10-19T20:14:12.583Z,129.38
2018-10-19T20:15:12.517Z,146.25
2018-10-19T20:16:12.559Z,140.63
2018-10-19T20:17:12.542Z,140.63
2018-10-19T20:18:12.488Z,140.63
2018-10-19T20:19:12.409Z,135.00
2018-10-19T20:20:12.468Z,135.00
2018-10-19T20:21:12.409Z,135.00
2018-10-19T20:22:12.450Z,135.00
2018-10-19T20:23:12.437Z,129.38
2018-10-19T20:24:12.320Z,129.38
2018-10-19T20:25:12.270Z,129.38
2018-10-19T20:26:12.340Z,129.38
2018-10-19T20:27:12.340Z,129.38
2018-10-19T20:28:12.244Z,135.00
2018-10-19T20:29:12.326Z,129.38
2018-10-19T20:30:12.156Z,129.38
2018-10-19T20:31:12.138Z,129.38
2018-10-19T20:32:12.342Z,129.38
2018-10-19T20:33:12.162Z,129.38
2018-10-19T20:34:12.154Z,129.38
2018-10-19T20:35:12.161Z,135.00
2018-10-19T20:36:12.163Z,129.38
2018-10-19T20:37:12.147Z,129.38
2018-10-19T20:38:12.294Z,129.38
2018-10-19T20:39:11.967Z,129.38
2018-10-19T20:40:11.963Z,135.00
2018-10-19T20:41:12.028Z,101.25
2018-10-19T20:42:11.987Z,95.63
2018-10-19T20:43:11.882Z,84.38
2018-10-19T20:44:11.909Z,118.13
2018-10-19T20:45:11.852Z,151.88
2018-10-19T20:46:11.826Z,146.25
2018-10-19T20:47:11.850Z,140.63
2018-10-19T20:48:11.902Z,135.00
2018-10-19T20:49:11.740Z,135.00
2018-10-19T20:50:11.796Z,135.00
2018-10-19T20:51:11.749Z,101.25
2018-10-19T20:52:11.703Z,56.25
2018-10-19T20:53:11.822Z,61.88
2018-10-19T20:54:11.797Z,112.50
2018-10-19T20:55:11.628Z,118.13
2018-10-19T20:56:11.675Z,157.50
2018-10-19T20:57:11.569Z,101.25
2018-10-19T20:58:11.572Z,90.00
2018-10-19T20:59:11.794Z,90.00
2018-10-19T21:00:11.531Z,84.38
2018-10-19T21:01:11.474Z,95.63
2018-10-19T21:02:11.565Z,112.50
2018-10-19T21:03:11.484Z,112.50
2018-10-19T21:04:11.532Z,112.50
2018-10-19T21:05:11.652Z,73.13
2018-10-19T21:06:11.383Z,78.75
2018-10-19T21:07:11.444Z,90.00
2018-10-19T21:08:11.416Z,151.88
2018-10-19T21:09:11.305Z,157.50
2018-10-19T21:10:11.285Z,151.88
2018-10-19T21:11:11.656Z,84.38
2018-10-19T21:12:11.244Z,112.50
2018-10-19T21:13:11.247Z,67.50
2018-10-19T21:14:11.320Z,67.50
2018-10-19T21:15:11.226Z,73.13
2018-10-19T21:16:11.244Z,84.38
2018-10-19T21:17:11.423Z,112.50
2018-10-19T21:18:11.144Z,135.00
2018-10-19T21:19:11.296Z,129.38
2018-10-19T21:20:11.180Z,129.38
2018-10-19T21:21:11.051Z,123.75
2018-10-19T21:22:11.147Z,123.75
2018-10-19T21:23:11.093Z,123.75
2018-10-19T21:24:10.969Z,101.25
2018-10-19T21:25:11.028Z,106.88
2018-10-19T21:26:11.052Z,106.88
2018-10-19T21:27:10.966Z,129.38
2018-10-19T21:28:11.048Z,129.38
2018-10-19T21:29:10.941Z,73.13
2018-10-19T21:30:10.844Z,106.88
2018-10-19T21:31:10.828Z,129.38
2018-10-19T21:32:10.858Z,129.38
2018-10-19T21:33:11.149Z,106.88
2018-10-19T21:34:11.015Z,123.75
2018-10-19T21:35:10.901Z,118.13
2018-10-19T21:36:10.742Z,118.13
2018-10-19T21:37:10.678Z,112.50
2018-10-19T21:38:10.779Z,112.50
2018-10-19T21:39:10.846Z,112.50
2018-10-19T21:40:10.618Z,112.50
2018-10-19T21:41:10.639Z,112.50
2018-10-19T21:42:10.596Z,112.50
2018-10-19T21:43:10.801Z,112.50
2018-10-19T21:44:10.802Z,112.50
2018-10-19T21:45:10.498Z,73.13
2018-10-19T21:46:10.482Z,112.50
2018-10-19T21:47:10.555Z,106.88
2018-10-19T21:48:10.518Z,101.25
2018-10-19T21:49:10.448Z,95.63
2018-10-19T21:50:10.649Z,95.63
2018-10-19T21:51:10.368Z,73.13
2018-10-19T21:52:10.383Z,78.75
2018-10-19T21:53:10.383Z,61.88
2018-10-19T21:54:10.327Z,45.00
2018-10-19T21:55:10.247Z,50.63
2018-10-19T21:56:10.595Z,78.75
2018-10-19T21:57:10.855Z,50.63
2018-10-19T21:58:10.874Z,61.88
2018-10-19T21:59:10.575Z,101.25
2018-10-19T22:00:10.568Z,95.63
2018-10-19T22:01:10.557Z,90.00
2018-10-19T22:02:10.987Z,84.38
2018-10-19T22:03:10.757Z,67.50
2018-10-19T22:04:10.651Z,50.63
2018-10-19T22:05:10.556Z,45.00
2018-10-19T22:06:10.241Z,45.00
2018-10-19T22:07:10.211Z,45.00
2018-10-19T22:08:10.681Z,56.25
2018-10-19T22:09:10.262Z,61.88
2018-10-19T22:10:10.228Z,61.88
2018-10-19T22:11:09.922Z,45.00
2018-10-19T22:12:09.876Z,50.63
2018-10-19T22:13:10.064Z,50.63
2018-10-19T22:14:10.043Z,56.25
2018-10-19T22:15:10.048Z,56.25
2018-10-19T22:16:09.964Z,61.88
2018-10-19T22:17:09.880Z,56.25
2018-10-19T22:18:10.385Z,50.63
2018-10-19T22:19:11.447Z,56.25
2018-10-19T22:20:09.681Z,56.25
2018-10-19T22:21:09.664Z,50.63
2018-10-19T22:22:09.641Z,39.38
2018-10-19T22:23:09.810Z,39.38
2018-10-19T22:24:09.865Z,39.38
2018-10-19T22:25:09.943Z,33.75
2018-10-19T22:26:09.692Z,28.13
2018-10-19T22:27:09.528Z,22.50
2018-10-19T22:28:09.644Z,22.50
2018-10-19T22:29:10.500Z,16.88
2018-10-19T22:30:09.828Z,16.88
2018-10-19T22:31:10.938Z,16.88
2018-10-19T22:32:10.047Z,16.88
2018-10-19T22:33:09.592Z,16.88
2018-10-19T22:34:09.367Z,16.88
2018-10-19T22:35:09.729Z,16.88
2018-10-19T22:36:09.317Z,11.25
2018-10-19T22:37:09.555Z,11.25
2018-10-19T22:38:09.777Z,11.25
2018-10-19T22:39:09.230Z,11.25
2018-10-19T22:40:09.248Z,11.25
2018-10-19T22:41:09.272Z,5.63
2018-10-19T22:42:09.168Z,11.25
2018-10-19T22:43:09.853Z,11.25
2018-10-19T22:44:09.137Z,11.25
2018-10-19T22:45:09.101Z,11.25
2018-10-19T22:46:09.116Z,11.25
2018-10-19T22:47:09.093Z,11.25
2018-10-19T22:48:09.007Z,11.25
2018-10-19T22:49:09.204Z,11.25
2018-10-19T22:50:08.971Z,11.25
2018-10-19T22:51:08.961Z,11.25
2018-10-19T22:52:08.957Z,11.25
2018-10-19T22:53:08.919Z,11.25
2018-10-19T22:54:08.887Z,11.25
2018-10-19T22:55:09.072Z,11.25
2018-10-19T22:56:08.813Z,11.25
2018-10-19T22:57:08.791Z,11.25
2018-10-19T22:58:08.815Z,11.25
2018-10-19T22:59:08.820Z,5.63
2018-10-19T23:00:08.862Z,11.25
2018-10-19T23:01:08.815Z,11.25
2018-10-19T23:02:08.688Z,5.63
2018-10-19T23:03:08.660Z,5.63
2018-10-19T23:04:08.655Z,5.63
2018-10-19T23:05:08.749Z,5.63
2018-10-19T23:06:08.579Z,5.63
2018-10-19T23:07:08.639Z,5.63
2018-10-19T23:08:08.535Z,5.63
2018-10-19T23:09:08.525Z,5.63
2018-10-19T23:10:08.553Z,0.00
2018-10-19T23:11:08.472Z,0.00
2018-10-19T23:12:08.423Z,0.00
2018-10-19T23:13:08.421Z,0.00
2018-10-19T23:14:08.395Z,0.00
2018-10-19T23:15:08.373Z,0.00
2018-10-19T23:16:08.392Z,0.00
2018-10-19T23:17:08.358Z,0.00
2018-10-19T23:18:08.306Z,0.00
2018-10-19T23:19:08.305Z,0.00
2018-10-19T23:20:08.274Z,0.00
2018-10-19T23:21:08.398Z,0.00
2018-10-19T23:22:08.204Z,0.00
2018-10-19T23:23:08.154Z,0.00
2018-10-19T23:24:08.154Z,0.00
2018-10-19T23:25:08.149Z,0.00
2018-10-19T23:26:08.091Z,0.00
2018-10-19T23:27:08.287Z,0.00
2018-10-19T23:28:08.230Z,0.00
2018-10-19T23:29:10.135Z,0.00
2018-10-19T23:30:09.052Z,0.00
2018-10-19T23:38:09.276Z,0.00
2018-10-19T23:40:09.016Z,0.00
2018-10-19T23:43:08.913Z,0.00
2018-10-19T23:46:09.120Z,0.00
2018-10-19T23:49:08.154Z,0.00
2018-10-19T23:50:07.988Z,0.00
2018-10-19T23:51:08.198Z,0.00
2018-10-19T23:53:09.674Z,0.00
2018-10-19T23:55:07.444Z,0.00
2018-10-19T23:56:07.349Z,0.00
2018-10-19T23:57:07.303Z,0.00
